Tim Quigg — WDB6570 — position and weather

sailwx.info

Track history (hours):
 
Tides and Currents Weather Stations Pressure Air Temp Water Temp Dewpoint Dewpoint Depression Visibility Wind Speed Wind Dir Waves Ship Positions

Tim Quigg

Owner: Harley Marine Services, Inc, Seattle, WA. More information available from US FCC via Universal Licensing System and Coast Guard Vessel Documentation Center.

Last reported at 2017-Aug-19 03:30 UTC. Time now 2017-Aug-19 03:47 UTC.
Position N 33°44' W 118°13'.

; draft 4.4 m.

Type: Tug. MMSI: 366926740.

Date/timePositionNaut miles runAvg speedWind from/ knotsBaromVisibWave heightAir tempDewpointWater temp
2017-Aug-19 03:30N 33°44' W 118°13'3 5.2
2017-Aug-19 03:00N 33°43' W 118°16'3 5.0
2017-Aug-19 02:30N 33°46' W 118°16'2 4.4
2017-Aug-19 02:01N 33°44' W 118°16'1 2.7
2017-Aug-19 01:31N 33°45' W 118°17'0 0.1
2017-Aug-19 01:01N 33°45' W 118°16'0 0.0
2017-Aug-19 00:31N 33°45' W 118°16'0 0.0
2017-Aug-19 00:01N 33°45' W 118°16'1 2.8
2017-Aug-18 23:31N 33°44' W 118°16'0 0.0
2017-Aug-18 23:01N 33°44' W 118°16'0 0.0
2017-Aug-18 22:31N 33°44' W 118°16'0 0.0
2017-Aug-18 22:01N 33°44' W 118°16'0 0.0
2017-Aug-18 21:30N 33°44' W 118°16'0 0.0
2017-Aug-18 21:00N 33°44' W 118°16'0 0.0
2017-Aug-18 20:30N 33°44' W 118°16'0 0.0
2017-Aug-18 20:00N 33°44' W 118°16'2 4.5
2017-Aug-18 19:30N 33°46' W 118°16'3 5.1
2017-Aug-18 19:01N 33°43' W 118°16'3 5.6
2017-Aug-18 18:30N 33°44' W 118°13'2 4.9
2017-Aug-18 18:00N 33°43' W 118°15'1 1.8
2017-Aug-18 17:30N 33°44' W 118°16'0 0.0
2017-Aug-18 17:01N 33°44' W 118°16'0 0.0
2017-Aug-18 16:31N 33°44' W 118°16'0 0.0
2017-Aug-18 16:00N 33°44' W 118°16'0 0.0
2017-Aug-18 15:31N 33°44' W 118°16'0 0.0
2017-Aug-18 15:00N 33°44' W 118°16'0 0.2
2017-Aug-18 14:00N 33°44' W 118°15'2 3.1
2017-Aug-18 13:30N 33°42' W 118°15'1 1.0
2017-Aug-18 13:01N 33°43' W 118°15'1 2.0
2017-Aug-18 12:31N 33°44' W 118°16'0 0.3
2017-Aug-18 11:59N 33°44' W 118°16'0 0.3
2017-Aug-18 11:30N 33°44' W 118°16'1 2.3
2017-Aug-18 11:00N 33°43' W 118°15'4 7.5
2017-Aug-18 10:31N 33°46' W 118°13'0 0.9
2017-Aug-18 09:59N 33°46' W 118°13'3 5.4
2017-Aug-18 09:30N 33°43' W 118°11'1 2.9
2017-Aug-18 09:00N 33°44' W 118°13'0 0.1
2017-Aug-18 08:30N 33°44' W 118°13'0 0.2
2017-Aug-18 08:01N 33°44' W 118°13'2 4.4
2017-Aug-18 07:30N 33°44' W 118°16'0 0.1
2017-Aug-18 07:01N 33°44' W 118°16'0 0.0
2017-Aug-18 06:31N 33°44' W 118°16'0 0.0
2017-Aug-18 06:00N 33°44' W 118°16'0 0.0
2017-Aug-18 05:31N 33°44' W 118°16'0 0.0
2017-Aug-18 05:01N 33°44' W 118°16'0 0.0
2017-Aug-18 04:31N 33°44' W 118°16'0 0.0
2017-Aug-18 04:00N 33°44' W 118°16'0 0.0
2017-Aug-18 03:30N 33°44' W 118°16'0 0.0
2017-Aug-18 03:00N 33°44' W 118°16'1 2.2
2017-Aug-18 02:31N 33°45' W 118°16'1 1.9
2017-Aug-18 02:00N 33°46' W 118°16'0 0.4
2017-Aug-18 01:31N 33°46' W 118°16'0 0.0
2017-Aug-18 01:01N 33°46' W 118°16'2 3.9
2017-Aug-18 00:31N 33°44' W 118°16'1 2.5
2017-Aug-18 00:00N 33°45' W 118°16'0 0.3
2017-Aug-17 23:31N 33°45' W 118°16'0 0.3
2017-Aug-17 23:01N 33°45' W 118°16'1 1.5
2017-Aug-17 22:31N 33°44' W 118°17'1 1.9
2017-Aug-17 22:01N 33°44' W 118°16'0 0.0
2017-Aug-17 21:30N 33°44' W 118°16'0 0.1
2017-Aug-17 21:01N 33°44' W 118°16'2 4.5
2017-Aug-17 20:31N 33°44' W 118°13'1 2.7
2017-Aug-17 20:00N 33°45' W 118°14'2 3.8
2017-Aug-17 19:28N 33°43' W 118°14'1 3.1
2017-Aug-17 19:01N 33°44' W 118°16'0 0.0
2017-Aug-17 18:30N 33°44' W 118°16'0 0.0
2017-Aug-17 18:01N 33°44' W 118°16'0 0.0
2017-Aug-17 17:31N 33°44' W 118°16'0 0.0
2017-Aug-17 17:01N 33°44' W 118°16'0 0.9
2017-Aug-17 16:30N 33°43' W 118°16'4 7.9
2017-Aug-17 16:00N 33°44' W 118°11'4 8.0
2017-Aug-17 15:29N 33°44' W 118°06'1 1.1
2017-Aug-17 15:00N 33°44' W 118°05'1 1.0
2017-Aug-17 14:30N 33°44' W 118°06'0 0.8
2017-Aug-17 14:00N 33°44' W 118°06'4 8.0
2017-Aug-17 13:31N 33°44' W 118°11'2 4.1
2017-Aug-17 12:57N 33°46' W 118°13'2 3.6
2017-Aug-17 12:28N 33°44' W 118°12'0 0.5
2017-Aug-17 12:00N 33°44' W 118°12'1 2.0
2017-Aug-17 11:29N 33°45' W 118°13'0 0.7
2017-Aug-17 10:57N 33°46' W 118°13'1 1.3
2017-Aug-17 10:30N 33°45' W 118°13'0 0.0
2017-Aug-17 10:00N 33°45' W 118°13'0 0.0
2017-Aug-17 09:31N 33°45' W 118°13'0 0.7
2017-Aug-17 09:00N 33°45' W 118°13'2 4.7
2017-Aug-17 08:30N 33°44' W 118°16'2 4.2
2017-Aug-17 08:01N 33°46' W 118°16'0 0.4
2017-Aug-17 07:29N 33°46' W 118°16'0 0.0
2017-Aug-17 06:58N 33°46' W 118°16'0 0.0
2017-Aug-17 06:29N 33°46' W 118°16'2 4.4
2017-Aug-17 06:00N 33°44' W 118°16'0 0.5
2017-Aug-17 05:30N 33°44' W 118°16'0 0.0
2017-Aug-17 05:00N 33°44' W 118°16'0 0.0
2017-Aug-17 04:31N 33°44' W 118°16'0 0.0
2017-Aug-17 04:00N 33°44' W 118°16'1 2.0
2017-Aug-17 03:30N 33°43' W 118°15'3 5.4
2017-Aug-17 02:58N 33°45' W 118°13'1 3.2
2017-Aug-17 02:31N 33°43' W 118°13'3 5.3
2017-Aug-17 02:00N 33°45' W 118°16'1 2.0
2017-Aug-17 01:30N 33°46' W 118°15'1 2.7
2017-Aug-17 01:00N 33°45' W 118°16'3 5.4
2017-Aug-17 00:30N 33°43' W 118°14'2 4.3
2017-Aug-17 00:00N 33°45' W 118°13'2 3.8
2017-Aug-16 23:31N 33°46' W 118°14'1 1.8
2017-Aug-16 23:01N 33°46' W 118°15'0 0.7
2017-Aug-16 22:29N 33°45' W 118°16'2 5.0
2017-Aug-16 22:00N 33°43' W 118°16'1 1.8
2017-Aug-16 21:31N 33°44' W 118°16'0 0.0
2017-Aug-16 21:01N 33°44' W 118°16'0 0.0
2017-Aug-16 20:29N 33°44' W 118°16'0 0.0
2017-Aug-16 20:00N 33°44' W 118°16'0 0.0
2017-Aug-16 19:30N 33°44' W 118°16'1 1.8
2017-Aug-16 19:00N 33°43' W 118°15'1 1.3
2017-Aug-16 18:31N 33°43' W 118°15'1 2.4
2017-Aug-16 17:59N 33°44' W 118°16'1 3.0
2017-Aug-16 17:31N 33°43' W 118°14'3 6.1
2017-Aug-16 17:01N 33°46' W 118°14'1 2.5
2017-Aug-16 16:29N 33°45' W 118°13'1 2.8
2017-Aug-16 15:59N 33°44' W 118°14'1 2.9
2017-Aug-16 15:31N 33°43' W 118°15'3 5.6
2017-Aug-16 14:58N 33°46' W 118°16'1 2.1
2017-Aug-16 14:31N 33°45' W 118°16'1 2.4
2017-Aug-16 14:00N 33°44' W 118°16'1 2.3
2017-Aug-16 13:30N 33°45' W 118°16'1 1.2
2017-Aug-16 13:01N 33°45' W 118°16'2 3.0
2017-Aug-16 12:30N 33°44' W 118°17'2 3.8
2017-Aug-16 12:00N 33°43' W 118°15'3 5.1
2017-Aug-16 11:29N 33°45' W 118°16'0 0.4
2017-Aug-16 11:00N 33°45' W 118°16'2 3.3
2017-Aug-16 10:28N 33°44' W 118°16'1 3.2
2017-Aug-16 10:01N 33°43' W 118°15'1 2.6
2017-Aug-16 09:30N 33°44' W 118°16'0 0.0
2017-Aug-16 09:01N 33°44' W 118°16'0 0.0
2017-Aug-16 08:30N 33°44' W 118°16'0 0.0
2017-Aug-16 08:01N 33°44' W 118°16'0 0.0
2017-Aug-16 07:30N 33°44' W 118°16'0 0.0
2017-Aug-16 07:00N 33°44' W 118°16'0 0.0
2017-Aug-16 06:29N 33°44' W 118°16'0 0.0
2017-Aug-16 05:59N 33°44' W 118°16'0 0.0
2017-Aug-16 05:30N 33°44' W 118°16'0 0.0
2017-Aug-16 05:00N 33°44' W 118°16'0 0.7
2017-Aug-16 04:30N 33°44' W 118°15'0 0.0
2017-Aug-16 04:00N 33°44' W 118°15'0 0.0
2017-Aug-16 03:30N 33°44' W 118°15'2 4.3
2017-Aug-16 03:00N 33°45' W 118°13'1 2.7
2017-Aug-16 02:31N 33°46' W 118°13'0 0.0
2017-Aug-16 02:01N 33°46' W 118°13'0 0.1
2017-Aug-16 01:30N 33°46' W 118°13'1 2.7
2017-Aug-16 01:00N 33°45' W 118°13'2 3.7
2017-Aug-16 00:30N 33°44' W 118°12'2 4.3
2017-Aug-16 00:00N 33°43' W 118°14'2 2.9
2017-Aug-15 23:29N 33°44' W 118°16'0 0.0
2017-Aug-15 23:00N 33°44' W 118°16'0 0.0
2017-Aug-15 22:29N 33°44' W 118°16'0 0.0
2017-Aug-15 22:00N 33°44' W 118°16'1 1.3
2017-Aug-15 21:30N 33°44' W 118°16'0 0.7
2017-Aug-15 21:01N 33°44' W 118°16'1 1.2
2017-Aug-15 20:31N 33°44' W 118°16'0 0.5
2017-Aug-15 20:00N 33°44' W 118°16'0 0.0
2017-Aug-15 19:30N 33°44' W 118°16'0 0.0
2017-Aug-15 18:58N 33°44' W 118°16'0 0.0
2017-Aug-15 18:30N 33°44' W 118°16'0 0.0
2017-Aug-15 17:59N 33°44' W 118°16'0 0.0
2017-Aug-15 17:31N 33°44' W 118°16'0 0.0
2017-Aug-15 16:59N 33°44' W 118°16'0 0.0
2017-Aug-15 16:28N 33°44' W 118°16'0 0.6
2017-Aug-15 15:54N 33°44' W 118°15'1 1.6
2017-Aug-15 15:27N 33°43' W 118°16'3 6.0
2017-Aug-15 14:58N 33°45' W 118°13'0 0.0
2017-Aug-15 14:15N 33°45' W 118°13'2 9.7
2017-Aug-15 14:00N 33°43' W 118°14'2 3.0
2017-Aug-15 13:30N 33°44' W 118°16'0 0.0
2017-Aug-15 13:00N 33°44' W 118°16'0 0.0
2017-Aug-15 12:30N 33°44' W 118°16'0 0.0
2017-Aug-15 12:00N 33°44' W 118°16'0 0.0
2017-Aug-15 11:30N 33°44' W 118°16'0 0.0
2017-Aug-15 11:00N 33°44' W 118°16'1 1.5
2017-Aug-15 10:30N 33°43' W 118°16'3 6.4
2017-Aug-15 09:59N 33°46' W 118°13'1 1.3
2017-Aug-15 09:30N 33°46' W 118°13'1 1.2
2017-Aug-15 09:01N 33°46' W 118°14'0 0.1
2017-Aug-15 08:28N 33°46' W 118°14'2 5.1
2017-Aug-15 08:00N 33°44' W 118°13'2 3.7
2017-Aug-15 07:30N 33°44' W 118°16'0 0.2
2017-Aug-15 06:59N 33°44' W 118°16'0 0.0
2017-Aug-15 06:31N 33°44' W 118°16'0 0.0
2017-Aug-15 05:59N 33°44' W 118°16'0 0.0
2017-Aug-15 05:31N 33°44' W 118°16'0 0.0
2017-Aug-15 04:55N 33°44' W 118°16'0 0.0
2017-Aug-15 04:30N 33°44' W 118°16'0 0.0
2017-Aug-15 03:58N 33°44' W 118°16'0 0.0
2017-Aug-15 03:29N 33°44' W 118°16'0 0.0
2017-Aug-15 03:01N 33°44' W 118°16'0 0.0
2017-Aug-15 02:31N 33°44' W 118°16'1 1.2
2017-Aug-15 02:00N 33°43' W 118°16'0 0.8
2017-Aug-15 01:31N 33°44' W 118°17'0 0.0
2017-Aug-15 01:01N 33°44' W 118°17'1 1.4
2017-Aug-15 00:31N 33°44' W 118°17'1 1.5
2017-Aug-15 00:00N 33°45' W 118°17'2 3.1
2017-Aug-14 23:31N 33°44' W 118°16'0 0.0
2017-Aug-14 23:01N 33°44' W 118°16'0 0.1
2017-Aug-14 22:30N 33°44' W 118°16'2 4.1
2017-Aug-14 22:01N 33°44' W 118°13'2 3.2
2017-Aug-14 21:31N 33°45' W 118°12'0 0.5
2017-Aug-14 21:01N 33°45' W 118°12'2 4.3
2017-Aug-14 20:31N 33°43' W 118°14'3 5.2
2017-Aug-14 20:00N 33°44' W 118°17'1 1.9
2017-Aug-14 19:31N 33°45' W 118°16'2 4.5
2017-Aug-14 19:01N 33°43' W 118°16'1 1.3
2017-Aug-14 18:30N 33°44' W 118°16'0 0.0
2017-Aug-14 18:00N 33°44' W 118°16'0 0.0
2017-Aug-14 17:29N 33°44' W 118°16'0 0.0
2017-Aug-14 17:01N 33°44' W 118°16'0 0.0
2017-Aug-14 16:30N 33°44' W 118°16'2 3.1
2017-Aug-14 16:01N 33°43' W 118°14'510.5
2017-Aug-14 15:31N 33°44' W 118°08'2 4.1
2017-Aug-14 15:01N 33°44' W 118°05'1 2.2
2017-Aug-14 14:30N 33°43' W 118°06'1 1.2
2017-Aug-14 14:00N 33°44' W 118°06'0 0.4
2017-Aug-14 13:31N 33°44' W 118°06'510.1
2017-Aug-14 12:59N 33°44' W 118°12'3 5.5
2017-Aug-14 12:30N 33°44' W 118°16'0 0.0
2017-Aug-14 11:59N 33°44' W 118°16'0 0.5
2017-Aug-14 11:30N 33°44' W 118°16'2 4.1
2017-Aug-14 11:00N 33°42' W 118°15'2 4.5
2017-Aug-14 10:30N 33°44' W 118°16'0 0.0
2017-Aug-14 10:01N 33°44' W 118°16'0 0.0
2017-Aug-14 09:30N 33°44' W 118°16'0 0.0
2017-Aug-14 09:01N 33°44' W 118°16'0 0.0
2017-Aug-14 08:29N 33°44' W 118°16'0 0.0
2017-Aug-14 08:00N 33°44' W 118°16'0 0.0
2017-Aug-14 07:31N 33°44' W 118°16'0 0.0
2017-Aug-14 07:01N 33°44' W 118°16'0 0.0
2017-Aug-14 06:30N 33°44' W 118°16'0 0.0
2017-Aug-14 06:00N 33°44' W 118°16'0 0.0
2017-Aug-14 05:30N 33°44' W 118°16'0 0.0
2017-Aug-14 04:58N 33°44' W 118°16'0 0.0
2017-Aug-14 04:31N 33°44' W 118°16'0 0.0
2017-Aug-14 04:00N 33°44' W 118°16'1 1.3
2017-Aug-14 03:30N 33°44' W 118°16'1 2.4
2017-Aug-14 03:01N 33°45' W 118°16'1 1.2
2017-Aug-14 02:30N 33°45' W 118°17'1 2.5
2017-Aug-14 02:01N 33°46' W 118°17'0 0.1
2017-Aug-14 01:31N 33°46' W 118°17'1 2.4
2017-Aug-14 01:00N 33°45' W 118°16'1 1.1
2017-Aug-14 00:31N 33°44' W 118°16'1 1.7
2017-Aug-14 00:00N 33°43' W 118°16'1 2.5
2017-Aug-13 23:31N 33°43' W 118°15'2 3.0
2017-Aug-13 23:00N 33°44' W 118°13'1 2.6
2017-Aug-13 22:30N 33°45' W 118°13'0 0.0
2017-Aug-13 22:01N 33°45' W 118°13'1 1.4
2017-Aug-13 21:30N 33°46' W 118°13'1 1.3
2017-Aug-13 21:01N 33°46' W 118°13'0 0.3
2017-Aug-13 20:31N 33°46' W 118°13'0 0.1
2017-Aug-13 20:01N 33°46' W 118°13'4 6.9
2017-Aug-13 19:29N 33°43' W 118°15'2 5.2
2017-Aug-13 19:01N 33°45' W 118°16'0 0.4
2017-Aug-13 18:31N 33°46' W 118°16'2 3.5
2017-Aug-13 18:00N 33°44' W 118°16'0 0.2
2017-Aug-13 17:31N 33°44' W 118°16'0 0.0
2017-Aug-13 17:01N 33°44' W 118°16'0 0.0
2017-Aug-13 16:31N 33°44' W 118°16'0 0.0
2017-Aug-13 16:01N 33°44' W 118°16'0 0.0
2017-Aug-13 15:30N 33°44' W 118°16'0 0.0
2017-Aug-13 14:59N 33°44' W 118°16'0 0.0
2017-Aug-13 14:31N 33°44' W 118°16'0 0.0
2017-Aug-13 13:58N 33°44' W 118°16'1 3.2
2017-Aug-13 13:30N 33°45' W 118°16'0 0.2
2017-Aug-13 13:01N 33°45' W 118°16'0 0.5
2017-Aug-13 12:30N 33°45' W 118°16'2 3.7
2017-Aug-13 12:00N 33°43' W 118°16'3 6.0
2017-Aug-13 11:27N 33°45' W 118°12'0 1.1
2017-Aug-13 11:00N 33°45' W 118°13'1 2.5
2017-Aug-13 10:31N 33°44' W 118°13'0 0.8
2017-Aug-13 10:00N 33°44' W 118°14'0 0.0
2017-Aug-13 09:30N 33°44' W 118°14'0 0.0
2017-Aug-13 09:00N 33°44' W 118°14'0 0.0
2017-Aug-13 08:31N 33°44' W 118°14'0 0.0
2017-Aug-13 08:01N 33°44' W 118°14'0 0.1
2017-Aug-13 07:31N 33°44' W 118°14'0 0.8
2017-Aug-13 07:01N 33°43' W 118°14'1 2.4
2017-Aug-13 06:30N 33°43' W 118°15'1 2.3
2017-Aug-13 06:00N 33°44' W 118°16'0 0.0
2017-Aug-13 05:31N 33°44' W 118°16'0 0.0
2017-Aug-13 05:01N 33°44' W 118°16'0 0.0
2017-Aug-13 04:31N 33°44' W 118°16'1 2.2
2017-Aug-13 04:00N 33°43' W 118°15'1 2.1
2017-Aug-13 03:31N 33°43' W 118°14'2 3.4
2017-Aug-13 03:01N 33°44' W 118°16'0 0.0
2017-Aug-13 02:31N 33°44' W 118°16'0 0.1
2017-Aug-13 02:01N 33°44' W 118°16'2 4.4
2017-Aug-13 01:31N 33°44' W 118°13'0 0.0
2017-Aug-13 01:00N 33°44' W 118°13'2 4.3
2017-Aug-13 00:30N 33°46' W 118°13'1 1.9
2017-Aug-13 00:00N 33°45' W 118°13'2 3.4
2017-Aug-12 23:31N 33°44' W 118°12'3 6.9
2017-Aug-12 23:01N 33°44' W 118°16'0 0.0
2017-Aug-12 22:31N 33°44' W 118°16'0 0.0
2017-Aug-12 22:00N 33°44' W 118°16'0 0.0
2017-Aug-12 21:30N 33°44' W 118°16'0 0.1
2017-Aug-12 21:01N 33°44' W 118°16'0 0.1
2017-Aug-12 20:31N 33°44' W 118°16'0 0.1
2017-Aug-12 20:00N 33°44' W 118°16'1 1.8
2017-Aug-12 19:31N 33°43' W 118°15'4 7.9
2017-Aug-12 19:00N 33°44' W 118°11'0 0.5
2017-Aug-12 18:31N 33°44' W 118°11'4 8.1
2017-Aug-12 18:01N 33°44' W 118°16'0 0.4
2017-Aug-12 17:30N 33°44' W 118°16'0 0.0
2017-Aug-12 17:01N 33°44' W 118°16'3 5.7
2017-Aug-12 16:30N 33°44' W 118°12'1 1.1
2017-Aug-12 16:00N 33°45' W 118°13'1 1.2
2017-Aug-12 15:27N 33°44' W 118°13'2 4.3
2017-Aug-12 15:00N 33°46' W 118°13'1 1.1
2017-Aug-12 14:30N 33°46' W 118°13'1 1.7
2017-Aug-12 14:01N 33°46' W 118°13'3 5.7
2017-Aug-12 13:31N 33°44' W 118°16'0 0.1
2017-Aug-12 13:01N 33°44' W 118°16'0 0.0
2017-Aug-12 12:30N 33°44' W 118°16'0 0.0
2017-Aug-12 12:00N 33°44' W 118°16'0 0.0
2017-Aug-12 11:30N 33°44' W 118°16'1 2.2
2017-Aug-12 11:00N 33°45' W 118°16'1 2.2
2017-Aug-12 10:30N 33°46' W 118°16'0 0.2
2017-Aug-12 09:59N 33°46' W 118°16'0 0.0
2017-Aug-12 09:31N 33°46' W 118°16'0 0.0
2017-Aug-12 09:00N 33°46' W 118°16'0 0.0
2017-Aug-12 08:30N 33°46' W 118°16'0 0.0
2017-Aug-12 08:01N 33°46' W 118°16'0 0.0
2017-Aug-12 07:30N 33°46' W 118°16'0 0.7
2017-Aug-12 07:00N 33°46' W 118°15'3 5.4
2017-Aug-12 06:31N 33°44' W 118°12'0 0.4
2017-Aug-12 06:00N 33°45' W 118°12'3 5.6
2017-Aug-12 05:30N 33°44' W 118°16'0 0.0
2017-Aug-12 05:00N 33°44' W 118°16'1 1.5
2017-Aug-12 04:30N 33°43' W 118°16'3 6.4
2017-Aug-12 04:00N 33°45' W 118°12'3 5.3
2017-Aug-12 03:31N 33°43' W 118°14'3 5.5
2017-Aug-12 03:01N 33°45' W 118°16'1 2.7
2017-Aug-12 02:31N 33°44' W 118°16'0 0.0
2017-Aug-12 02:01N 33°44' W 118°16'0 0.0
2017-Aug-12 01:31N 33°44' W 118°16'0 0.0
2017-Aug-12 01:00N 33°44' W 118°16'0 0.0
2017-Aug-12 00:30N 33°44' W 118°16'3 6.5
2017-Aug-12 00:00N 33°44' W 118°12'1 1.2
2017-Aug-11 23:31N 33°44' W 118°11'2 4.3
2017-Aug-11 23:00N 33°43' W 118°14'2 3.9
2017-Aug-11 22:31N 33°44' W 118°16'0 0.1
2017-Aug-11 22:00N 33°44' W 118°16'2 3.8
2017-Aug-11 21:31N 33°44' W 118°13'2 3.2
2017-Aug-11 21:01N 33°45' W 118°12'3 6.4
2017-Aug-11 20:30N 33°43' W 118°16'1 1.4
2017-Aug-11 20:01N 33°44' W 118°16'0 0.0
2017-Aug-11 19:31N 33°44' W 118°16'0 0.0
2017-Aug-11 19:01N 33°44' W 118°16'0 0.0
2017-Aug-11 18:31N 33°44' W 118°16'0 0.0
2017-Aug-11 18:01N 33°44' W 118°16'1 1.3
2017-Aug-11 17:30N 33°44' W 118°16'1 1.6
2017-Aug-11 17:00N 33°45' W 118°16'1 1.5
2017-Aug-11 16:30N 33°46' W 118°16'0 0.9
2017-Aug-11 16:00N 33°45' W 118°16'2 4.1
2017-Aug-11 15:30N 33°43' W 118°16'0 0.5
2017-Aug-11 15:01N 33°43' W 118°16'3 5.8
2017-Aug-11 14:31N 33°46' W 118°16'2 2.1
2017-Aug-11 13:30N 33°44' W 118°16'0 0.3
2017-Aug-11 13:00N 33°44' W 118°16'1 1.2
2017-Aug-11 12:30N 33°43' W 118°16'2 3.8
2017-Aug-11 12:00N 33°45' W 118°16'0 0.4
2017-Aug-11 11:29N 33°45' W 118°16'0 0.0
2017-Aug-11 11:00N 33°45' W 118°16'0 0.0
2017-Aug-11 10:31N 33°45' W 118°16'2 3.7
2017-Aug-11 10:00N 33°46' W 118°14'1 2.3
2017-Aug-11 09:31N 33°46' W 118°13'0 0.3
2017-Aug-11 09:00N 33°46' W 118°13'1 1.6
2017-Aug-11 08:30N 33°46' W 118°13'2 4.4
2017-Aug-11 07:56N 33°44' W 118°11'0 0.3
2017-Aug-11 07:28N 33°44' W 118°12'3 5.8
2017-Aug-11 07:00N 33°43' W 118°15'1 2.5
2017-Aug-11 06:31N 33°44' W 118°16'0 0.0
2017-Aug-11 06:00N 33°44' W 118°16'0 0.0
2017-Aug-11 05:30N 33°44' W 118°16'0 0.0
2017-Aug-11 05:00N 33°44' W 118°16'0 0.0
2017-Aug-11 04:30N 33°44' W 118°16'0 0.0
2017-Aug-11 04:00N 33°44' W 118°16'0 0.0
2017-Aug-11 03:30N 33°44' W 118°16'0 0.0
2017-Aug-11 03:01N 33°44' W 118°16'0 1.0
2017-Aug-11 02:30N 33°43' W 118°16'3 5.7
2017-Aug-11 02:00N 33°45' W 118°13'1 1.9
2017-Aug-11 01:31N 33°46' W 118°13'0 0.0
2017-Aug-11 01:00N 33°46' W 118°13'2 3.9
2017-Aug-11 00:30N 33°44' W 118°13'1 2.7
2017-Aug-11 00:00N 33°44' W 118°11'1 2.5
2017-Aug-10 23:31N 33°43' W 118°13'2 4.9
2017-Aug-10 23:00N 33°44' W 118°16'1 2.5
2017-Aug-10 22:30N 33°43' W 118°15'2 3.1
2017-Aug-10 22:00N 33°44' W 118°13'2 4.5
2017-Aug-10 21:30N 33°44' W 118°16'0 0.0
2017-Aug-10 21:01N 33°44' W 118°16'0 0.0
2017-Aug-10 20:31N 33°44' W 118°16'0 0.0
2017-Aug-10 20:00N 33°44' W 118°16'1 1.2
2017-Aug-10 19:30N 33°44' W 118°16'0 0.0
2017-Aug-10 19:01N 33°44' W 118°16'0 0.0
2017-Aug-10 18:30N 33°44' W 118°16'0 0.0
2017-Aug-10 18:00N 33°44' W 118°16'1 1.3
2017-Aug-10 17:30N 33°44' W 118°16'0 0.6
2017-Aug-10 17:00N 33°44' W 118°16'2 4.2
2017-Aug-10 16:30N 33°44' W 118°13'0 0.9
2017-Aug-10 16:00N 33°44' W 118°13'3 6.0
2017-Aug-10 15:30N 33°41' W 118°11'3 5.7
2017-Aug-10 15:00N 33°44' W 118°12'1 2.4
2017-Aug-10 14:30N 33°44' W 118°13'2 3.8
2017-Aug-10 14:00N 33°44' W 118°16'0 0.2
2017-Aug-10 13:30N 33°44' W 118°16'0 0.3
2017-Aug-10 13:00N 33°44' W 118°16'2 4.4
2017-Aug-10 12:30N 33°46' W 118°17'0 0.3
2017-Aug-10 12:00N 33°46' W 118°17'2 3.1
2017-Aug-10 11:30N 33°44' W 118°17'2 4.0
2017-Aug-10 11:01N 33°43' W 118°15'1 2.7
2017-Aug-10 10:30N 33°44' W 118°16'0 0.0
2017-Aug-10 10:00N 33°44' W 118°16'0 0.0
2017-Aug-10 09:30N 33°44' W 118°16'0 0.0
2017-Aug-10 09:00N 33°44' W 118°16'0 0.0
2017-Aug-10 08:30N 33°44' W 118°16'0 0.0
2017-Aug-10 08:01N 33°44' W 118°16'0 0.0
2017-Aug-10 07:31N 33°44' W 118°16'0 0.0
2017-Aug-10 07:00N 33°44' W 118°16'0 0.0
2017-Aug-10 06:30N 33°44' W 118°16'0 0.0
2017-Aug-10 05:58N 33°44' W 118°16'0 0.0
2017-Aug-10 05:30N 33°44' W 118°16'0 0.0
2017-Aug-10 05:00N 33°44' W 118°16'0 0.0
2017-Aug-10 04:31N 33°44' W 118°16'0 0.0
2017-Aug-10 04:01N 33°44' W 118°16'0 0.0
2017-Aug-10 03:30N 33°44' W 118°16'0 0.0
2017-Aug-10 03:00N 33°44' W 118°16'0 0.0
2017-Aug-10 02:30N 33°44' W 118°16'0 0.0
2017-Aug-10 02:01N 33°44' W 118°16'0 0.0
2017-Aug-10 01:30N 33°44' W 118°16'0 0.0
2017-Aug-10 01:00N 33°44' W 118°16'0 0.0
2017-Aug-10 00:30N 33°44' W 118°16'0 0.0
2017-Aug-10 00:00N 33°44' W 118°16'1 1.8
2017-Aug-09 23:31N 33°44' W 118°17'1 2.8
2017-Aug-09 23:00N 33°45' W 118°16'2 3.7
2017-Aug-09 22:30N 33°44' W 118°16'2 3.6
2017-Aug-09 22:00N 33°43' W 118°15'1 2.1
2017-Aug-09 21:31N 33°43' W 118°16'1 2.1
2017-Aug-09 21:00N 33°44' W 118°16'0 0.5
2017-Aug-09 20:30N 33°44' W 118°16'1 2.3
2017-Aug-09 20:00N 33°43' W 118°15'1 1.3
2017-Aug-09 19:30N 33°43' W 118°15'1 2.4
2017-Aug-09 19:00N 33°44' W 118°16'0 0.5
2017-Aug-09 18:30N 33°44' W 118°16'0 0.0
2017-Aug-09 18:00N 33°44' W 118°16'0 0.0
2017-Aug-09 16:25N 33°44' W 118°16'0 0.0
2017-Aug-09 15:59N 33°44' W 118°16'0 0.0
2017-Aug-09 15:30N 33°44' W 118°16'2 3.9
2017-Aug-09 15:00N 33°44' W 118°13'1 1.0
2017-Aug-09 14:30N 33°44' W 118°13'2 3.6
2017-Aug-09 14:00N 33°46' W 118°14'1 2.5
2017-Aug-09 13:30N 33°45' W 118°13'1 1.0
2017-Aug-09 13:00N 33°46' W 118°13'1 1.4
2017-Aug-09 12:30N 33°46' W 118°13'1 1.4
2017-Aug-09 12:00N 33°46' W 118°13'1 1.9
2017-Aug-09 11:30N 33°45' W 118°13'2 3.8
2017-Aug-09 11:00N 33°44' W 118°11'3 6.2
2017-Aug-09 10:30N 33°43' W 118°15'1 2.2
2017-Aug-09 10:00N 33°44' W 118°16'0 0.0
2017-Aug-09 09:30N 33°44' W 118°16'0 0.0
2017-Aug-09 09:00N 33°44' W 118°16'0 0.0
2017-Aug-09 08:30N 33°44' W 118°16'0 0.0
2017-Aug-09 08:00N 33°44' W 118°16'0 0.0
2017-Aug-09 07:30N 33°44' W 118°16'0 0.0
2017-Aug-09 07:00N 33°44' W 118°16'0 0.0
2017-Aug-09 06:30N 33°44' W 118°16'0 0.0
2017-Aug-09 06:00N 33°44' W 118°16'0 0.0
2017-Aug-09 05:30N 33°44' W 118°16'0 0.0
2017-Aug-09 05:00N 33°44' W 118°16'0 0.0
2017-Aug-09 04:30N 33°44' W 118°16'0 0.0
2017-Aug-09 04:00N 33°44' W 118°16'  
Track history (hours):
 
Tides and Currents Weather Stations Pressure Air Temp Water Temp Dewpoint Dewpoint Depression Visibility Wind Speed Wind Dir Waves Ship Positions

Tim Quigg

Owner: Harley Marine Services, Inc, Seattle, WA. More information available from US FCC via Universal Licensing System and Coast Guard Vessel Documentation Center.

Last reported at 2017-Aug-19 03:30 UTC. Time now 2017-Aug-19 03:47 UTC.
Position N 33°44' W 118°13'.

; draft 4.4 m.

Type: Tug. MMSI: 366926740.

Date/timePositionNaut miles runAvg speedWind from/ knotsBaromVisibWave heightAir tempDewpointWater temp
2017-Aug-19 03:30N 33°44' W 118°13'3 5.2
2017-Aug-19 03:00N 33°43' W 118°16'3 5.0
2017-Aug-19 02:30N 33°46' W 118°16'2 4.4
2017-Aug-19 02:01N 33°44' W 118°16'1 2.7
2017-Aug-19 01:31N 33°45' W 118°17'0 0.1
2017-Aug-19 01:01N 33°45' W 118°16'0 0.0
2017-Aug-19 00:31N 33°45' W 118°16'0 0.0
2017-Aug-19 00:01N 33°45' W 118°16'1 2.8
2017-Aug-18 23:31N 33°44' W 118°16'0 0.0
2017-Aug-18 23:01N 33°44' W 118°16'0 0.0
2017-Aug-18 22:31N 33°44' W 118°16'0 0.0
2017-Aug-18 22:01N 33°44' W 118°16'0 0.0
2017-Aug-18 21:30N 33°44' W 118°16'0 0.0
2017-Aug-18 21:00N 33°44' W 118°16'0 0.0
2017-Aug-18 20:30N 33°44' W 118°16'0 0.0
2017-Aug-18 20:00N 33°44' W 118°16'2 4.5
2017-Aug-18 19:30N 33°46' W 118°16'3 5.1
2017-Aug-18 19:01N 33°43' W 118°16'3 5.6
2017-Aug-18 18:30N 33°44' W 118°13'2 4.9
2017-Aug-18 18:00N 33°43' W 118°15'1 1.8
2017-Aug-18 17:30N 33°44' W 118°16'0 0.0
2017-Aug-18 17:01N 33°44' W 118°16'0 0.0
2017-Aug-18 16:31N 33°44' W 118°16'0 0.0
2017-Aug-18 16:00N 33°44' W 118°16'0 0.0
2017-Aug-18 15:31N 33°44' W 118°16'0 0.0
2017-Aug-18 15:00N 33°44' W 118°16'0 0.2
2017-Aug-18 14:00N 33°44' W 118°15'2 3.1
2017-Aug-18 13:30N 33°42' W 118°15'1 1.0
2017-Aug-18 13:01N 33°43' W 118°15'1 2.0
2017-Aug-18 12:31N 33°44' W 118°16'0 0.3
2017-Aug-18 11:59N 33°44' W 118°16'0 0.3
2017-Aug-18 11:30N 33°44' W 118°16'1 2.3
2017-Aug-18 11:00N 33°43' W 118°15'4 7.5
2017-Aug-18 10:31N 33°46' W 118°13'0 0.9
2017-Aug-18 09:59N 33°46' W 118°13'3 5.4
2017-Aug-18 09:30N 33°43' W 118°11'1 2.9
2017-Aug-18 09:00N 33°44' W 118°13'0 0.1
2017-Aug-18 08:30N 33°44' W 118°13'0 0.2
2017-Aug-18 08:01N 33°44' W 118°13'2 4.4
2017-Aug-18 07:30N 33°44' W 118°16'0 0.1
2017-Aug-18 07:01N 33°44' W 118°16'0 0.0
2017-Aug-18 06:31N 33°44' W 118°16'0 0.0
2017-Aug-18 06:00N 33°44' W 118°16'0 0.0
2017-Aug-18 05:31N 33°44' W 118°16'0 0.0
2017-Aug-18 05:01N 33°44' W 118°16'0 0.0
2017-Aug-18 04:31N 33°44' W 118°16'0 0.0
2017-Aug-18 04:00N 33°44' W 118°16'0 0.0
2017-Aug-18 03:30N 33°44' W 118°16'0 0.0
2017-Aug-18 03:00N 33°44' W 118°16'1 2.2
2017-Aug-18 02:31N 33°45' W 118°16'1 1.9
2017-Aug-18 02:00N 33°46' W 118°16'0 0.4
2017-Aug-18 01:31N 33°46' W 118°16'0 0.0
2017-Aug-18 01:01N 33°46' W 118°16'2 3.9
2017-Aug-18 00:31N 33°44' W 118°16'1 2.5
2017-Aug-18 00:00N 33°45' W 118°16'0 0.3
2017-Aug-17 23:31N 33°45' W 118°16'0 0.3
2017-Aug-17 23:01N 33°45' W 118°16'1 1.5
2017-Aug-17 22:31N 33°44' W 118°17'1 1.9
2017-Aug-17 22:01N 33°44' W 118°16'0 0.0
2017-Aug-17 21:30N 33°44' W 118°16'0 0.1
2017-Aug-17 21:01N 33°44' W 118°16'2 4.5
2017-Aug-17 20:31N 33°44' W 118°13'1 2.7
2017-Aug-17 20:00N 33°45' W 118°14'2 3.8
2017-Aug-17 19:28N 33°43' W 118°14'1 3.1
2017-Aug-17 19:01N 33°44' W 118°16'0 0.0
2017-Aug-17 18:30N 33°44' W 118°16'0 0.0
2017-Aug-17 18:01N 33°44' W 118°16'0 0.0
2017-Aug-17 17:31N 33°44' W 118°16'0 0.0
2017-Aug-17 17:01N 33°44' W 118°16'0 0.9
2017-Aug-17 16:30N 33°43' W 118°16'4 7.9
2017-Aug-17 16:00N 33°44' W 118°11'4 8.0
2017-Aug-17 15:29N 33°44' W 118°06'1 1.1
2017-Aug-17 15:00N 33°44' W 118°05'1 1.0
2017-Aug-17 14:30N 33°44' W 118°06'0 0.8
2017-Aug-17 14:00N 33°44' W 118°06'4 8.0
2017-Aug-17 13:31N 33°44' W 118°11'2 4.1
2017-Aug-17 12:57N 33°46' W 118°13'2 3.6
2017-Aug-17 12:28N 33°44' W 118°12'0 0.5
2017-Aug-17 12:00N 33°44' W 118°12'1 2.0
2017-Aug-17 11:29N 33°45' W 118°13'0 0.7
2017-Aug-17 10:57N 33°46' W 118°13'1 1.3
2017-Aug-17 10:30N 33°45' W 118°13'0 0.0
2017-Aug-17 10:00N 33°45' W 118°13'0 0.0
2017-Aug-17 09:31N 33°45' W 118°13'0 0.7
2017-Aug-17 09:00N 33°45' W 118°13'2 4.7
2017-Aug-17 08:30N 33°44' W 118°16'2 4.2
2017-Aug-17 08:01N 33°46' W 118°16'0 0.4
2017-Aug-17 07:29N 33°46' W 118°16'0 0.0
2017-Aug-17 06:58N 33°46' W 118°16'0 0.0
2017-Aug-17 06:29N 33°46' W 118°16'2 4.4
2017-Aug-17 06:00N 33°44' W 118°16'0 0.5
2017-Aug-17 05:30N 33°44' W 118°16'0 0.0
2017-Aug-17 05:00N 33°44' W 118°16'0 0.0
2017-Aug-17 04:31N 33°44' W 118°16'0 0.0
2017-Aug-17 04:00N 33°44' W 118°16'1 2.0
2017-Aug-17 03:30N 33°43' W 118°15'3 5.4
2017-Aug-17 02:58N 33°45' W 118°13'1 3.2
2017-Aug-17 02:31N 33°43' W 118°13'3 5.3
2017-Aug-17 02:00N 33°45' W 118°16'1 2.0
2017-Aug-17 01:30N 33°46' W 118°15'1 2.7
2017-Aug-17 01:00N 33°45' W 118°16'3 5.4
2017-Aug-17 00:30N 33°43' W 118°14'2 4.3
2017-Aug-17 00:00N 33°45' W 118°13'2 3.8
2017-Aug-16 23:31N 33°46' W 118°14'1 1.8
2017-Aug-16 23:01N 33°46' W 118°15'0 0.7
2017-Aug-16 22:29N 33°45' W 118°16'2 5.0
2017-Aug-16 22:00N 33°43' W 118°16'1 1.8
2017-Aug-16 21:31N 33°44' W 118°16'0 0.0
2017-Aug-16 21:01N 33°44' W 118°16'0 0.0
2017-Aug-16 20:29N 33°44' W 118°16'0 0.0
2017-Aug-16 20:00N 33°44' W 118°16'0 0.0
2017-Aug-16 19:30N 33°44' W 118°16'1 1.8
2017-Aug-16 19:00N 33°43' W 118°15'1 1.3
2017-Aug-16 18:31N 33°43' W 118°15'1 2.4
2017-Aug-16 17:59N 33°44' W 118°16'1 3.0
2017-Aug-16 17:31N 33°43' W 118°14'3 6.1
2017-Aug-16 17:01N 33°46' W 118°14'1 2.5
2017-Aug-16 16:29N 33°45' W 118°13'1 2.8
2017-Aug-16 15:59N 33°44' W 118°14'1 2.9
2017-Aug-16 15:31N 33°43' W 118°15'3 5.6
2017-Aug-16 14:58N 33°46' W 118°16'1 2.1
2017-Aug-16 14:31N 33°45' W 118°16'1 2.4
2017-Aug-16 14:00N 33°44' W 118°16'1 2.3
2017-Aug-16 13:30N 33°45' W 118°16'1 1.2
2017-Aug-16 13:01N 33°45' W 118°16'2 3.0
2017-Aug-16 12:30N 33°44' W 118°17'2 3.8
2017-Aug-16 12:00N 33°43' W 118°15'3 5.1
2017-Aug-16 11:29N 33°45' W 118°16'0 0.4
2017-Aug-16 11:00N 33°45' W 118°16'2 3.3
2017-Aug-16 10:28N 33°44' W 118°16'1 3.2
2017-Aug-16 10:01N 33°43' W 118°15'1 2.6
2017-Aug-16 09:30N 33°44' W 118°16'0 0.0
2017-Aug-16 09:01N 33°44' W 118°16'0 0.0
2017-Aug-16 08:30N 33°44' W 118°16'0 0.0
2017-Aug-16 08:01N 33°44' W 118°16'0 0.0
2017-Aug-16 07:30N 33°44' W 118°16'0 0.0
2017-Aug-16 07:00N 33°44' W 118°16'0 0.0
2017-Aug-16 06:29N 33°44' W 118°16'0 0.0
2017-Aug-16 05:59N 33°44' W 118°16'0 0.0
2017-Aug-16 05:30N 33°44' W 118°16'0 0.0
2017-Aug-16 05:00N 33°44' W 118°16'0 0.7
2017-Aug-16 04:30N 33°44' W 118°15'0 0.0
2017-Aug-16 04:00N 33°44' W 118°15'0 0.0
2017-Aug-16 03:30N 33°44' W 118°15'2 4.3
2017-Aug-16 03:00N 33°45' W 118°13'1 2.7
2017-Aug-16 02:31N 33°46' W 118°13'0 0.0
2017-Aug-16 02:01N 33°46' W 118°13'0 0.1
2017-Aug-16 01:30N 33°46' W 118°13'1 2.7
2017-Aug-16 01:00N 33°45' W 118°13'2 3.7
2017-Aug-16 00:30N 33°44' W 118°12'2 4.3
2017-Aug-16 00:00N 33°43' W 118°14'2 2.9
2017-Aug-15 23:29N 33°44' W 118°16'0 0.0
2017-Aug-15 23:00N 33°44' W 118°16'0 0.0
2017-Aug-15 22:29N 33°44' W 118°16'0 0.0
2017-Aug-15 22:00N 33°44' W 118°16'1 1.3
2017-Aug-15 21:30N 33°44' W 118°16'0 0.7
2017-Aug-15 21:01N 33°44' W 118°16'1 1.2
2017-Aug-15 20:31N 33°44' W 118°16'0 0.5
2017-Aug-15 20:00N 33°44' W 118°16'0 0.0
2017-Aug-15 19:30N 33°44' W 118°16'0 0.0
2017-Aug-15 18:58N 33°44' W 118°16'0 0.0
2017-Aug-15 18:30N 33°44' W 118°16'0 0.0
2017-Aug-15 17:59N 33°44' W 118°16'0 0.0
2017-Aug-15 17:31N 33°44' W 118°16'0 0.0
2017-Aug-15 16:59N 33°44' W 118°16'0 0.0
2017-Aug-15 16:28N 33°44' W 118°16'0 0.6
2017-Aug-15 15:54N 33°44' W 118°15'1 1.6
2017-Aug-15 15:27N 33°43' W 118°16'3 6.0
2017-Aug-15 14:58N 33°45' W 118°13'0 0.0
2017-Aug-15 14:15N 33°45' W 118°13'2 9.7
2017-Aug-15 14:00N 33°43' W 118°14'2 3.0
2017-Aug-15 13:30N 33°44' W 118°16'0 0.0
2017-Aug-15 13:00N 33°44' W 118°16'0 0.0
2017-Aug-15 12:30N 33°44' W 118°16'0 0.0
2017-Aug-15 12:00N 33°44' W 118°16'0 0.0
2017-Aug-15 11:30N 33°44' W 118°16'0 0.0
2017-Aug-15 11:00N 33°44' W 118°16'1 1.5
2017-Aug-15 10:30N 33°43' W 118°16'3 6.4
2017-Aug-15 09:59N 33°46' W 118°13'1 1.3
2017-Aug-15 09:30N 33°46' W 118°13'1 1.2
2017-Aug-15 09:01N 33°46' W 118°14'0 0.1
2017-Aug-15 08:28N 33°46' W 118°14'2 5.1
2017-Aug-15 08:00N 33°44' W 118°13'2 3.7
2017-Aug-15 07:30N 33°44' W 118°16'0 0.2
2017-Aug-15 06:59N 33°44' W 118°16'0 0.0
2017-Aug-15 06:31N 33°44' W 118°16'0 0.0
2017-Aug-15 05:59N 33°44' W 118°16'0 0.0
2017-Aug-15 05:31N 33°44' W 118°16'0 0.0
2017-Aug-15 04:55N 33°44' W 118°16'0 0.0
2017-Aug-15 04:30N 33°44' W 118°16'0 0.0
2017-Aug-15 03:58N 33°44' W 118°16'0 0.0
2017-Aug-15 03:29N 33°44' W 118°16'0 0.0
2017-Aug-15 03:01N 33°44' W 118°16'0 0.0
2017-Aug-15 02:31N 33°44' W 118°16'1 1.2
2017-Aug-15 02:00N 33°43' W 118°16'0 0.8
2017-Aug-15 01:31N 33°44' W 118°17'0 0.0
2017-Aug-15 01:01N 33°44' W 118°17'1 1.4
2017-Aug-15 00:31N 33°44' W 118°17'1 1.5
2017-Aug-15 00:00N 33°45' W 118°17'2 3.1
2017-Aug-14 23:31N 33°44' W 118°16'0 0.0
2017-Aug-14 23:01N 33°44' W 118°16'0 0.1
2017-Aug-14 22:30N 33°44' W 118°16'2 4.1
2017-Aug-14 22:01N 33°44' W 118°13'2 3.2
2017-Aug-14 21:31N 33°45' W 118°12'0 0.5
2017-Aug-14 21:01N 33°45' W 118°12'2 4.3
2017-Aug-14 20:31N 33°43' W 118°14'3 5.2
2017-Aug-14 20:00N 33°44' W 118°17'1 1.9
2017-Aug-14 19:31N 33°45' W 118°16'2 4.5
2017-Aug-14 19:01N 33°43' W 118°16'1 1.3
2017-Aug-14 18:30N 33°44' W 118°16'0 0.0
2017-Aug-14 18:00N 33°44' W 118°16'0 0.0
2017-Aug-14 17:29N 33°44' W 118°16'0 0.0
2017-Aug-14 17:01N 33°44' W 118°16'0 0.0
2017-Aug-14 16:30N 33°44' W 118°16'2 3.1
2017-Aug-14 16:01N 33°43' W 118°14'510.5
2017-Aug-14 15:31N 33°44' W 118°08'2 4.1
2017-Aug-14 15:01N 33°44' W 118°05'1 2.2
2017-Aug-14 14:30N 33°43' W 118°06'1 1.2
2017-Aug-14 14:00N 33°44' W 118°06'0 0.4
2017-Aug-14 13:31N 33°44' W 118°06'510.1
2017-Aug-14 12:59N 33°44' W 118°12'3 5.5
2017-Aug-14 12:30N 33°44' W 118°16'0 0.0
2017-Aug-14 11:59N 33°44' W 118°16'0 0.5
2017-Aug-14 11:30N 33°44' W 118°16'2 4.1
2017-Aug-14 11:00N 33°42' W 118°15'2 4.5
2017-Aug-14 10:30N 33°44' W 118°16'0 0.0
2017-Aug-14 10:01N 33°44' W 118°16'0 0.0
2017-Aug-14 09:30N 33°44' W 118°16'0 0.0
2017-Aug-14 09:01N 33°44' W 118°16'0 0.0
2017-Aug-14 08:29N 33°44' W 118°16'0 0.0
2017-Aug-14 08:00N 33°44' W 118°16'0 0.0
2017-Aug-14 07:31N 33°44' W 118°16'0 0.0
2017-Aug-14 07:01N 33°44' W 118°16'0 0.0
2017-Aug-14 06:30N 33°44' W 118°16'0 0.0
2017-Aug-14 06:00N 33°44' W 118°16'0 0.0
2017-Aug-14 05:30N 33°44' W 118°16'0 0.0
2017-Aug-14 04:58N 33°44' W 118°16'0 0.0
2017-Aug-14 04:31N 33°44' W 118°16'0 0.0
2017-Aug-14 04:00N 33°44' W 118°16'1 1.3
2017-Aug-14 03:30N 33°44' W 118°16'1 2.4
2017-Aug-14 03:01N 33°45' W 118°16'1 1.2
2017-Aug-14 02:30N 33°45' W 118°17'1 2.5
2017-Aug-14 02:01N 33°46' W 118°17'0 0.1
2017-Aug-14 01:31N 33°46' W 118°17'1 2.4
2017-Aug-14 01:00N 33°45' W 118°16'1 1.1
2017-Aug-14 00:31N 33°44' W 118°16'1 1.7
2017-Aug-14 00:00N 33°43' W 118°16'1 2.5
2017-Aug-13 23:31N 33°43' W 118°15'2 3.0
2017-Aug-13 23:00N 33°44' W 118°13'1 2.6
2017-Aug-13 22:30N 33°45' W 118°13'0 0.0
2017-Aug-13 22:01N 33°45' W 118°13'1 1.4
2017-Aug-13 21:30N 33°46' W 118°13'1 1.3
2017-Aug-13 21:01N 33°46' W 118°13'0 0.3
2017-Aug-13 20:31N 33°46' W 118°13'0 0.1
2017-Aug-13 20:01N 33°46' W 118°13'4 6.9
2017-Aug-13 19:29N 33°43' W 118°15'2 5.2
2017-Aug-13 19:01N 33°45' W 118°16'0 0.4
2017-Aug-13 18:31N 33°46' W 118°16'2 3.5
2017-Aug-13 18:00N 33°44' W 118°16'0 0.2
2017-Aug-13 17:31N 33°44' W 118°16'0 0.0
2017-Aug-13 17:01N 33°44' W 118°16'0 0.0
2017-Aug-13 16:31N 33°44' W 118°16'0 0.0
2017-Aug-13 16:01N 33°44' W 118°16'0 0.0
2017-Aug-13 15:30N 33°44' W 118°16'0 0.0
2017-Aug-13 14:59N 33°44' W 118°16'0 0.0
2017-Aug-13 14:31N 33°44' W 118°16'0 0.0
2017-Aug-13 13:58N 33°44' W 118°16'1 3.2
2017-Aug-13 13:30N 33°45' W 118°16'0 0.2
2017-Aug-13 13:01N 33°45' W 118°16'0 0.5
2017-Aug-13 12:30N 33°45' W 118°16'2 3.7
2017-Aug-13 12:00N 33°43' W 118°16'3 6.0
2017-Aug-13 11:27N 33°45' W 118°12'0 1.1
2017-Aug-13 11:00N 33°45' W 118°13'1 2.5
2017-Aug-13 10:31N 33°44' W 118°13'0 0.8
2017-Aug-13 10:00N 33°44' W 118°14'0 0.0
2017-Aug-13 09:30N 33°44' W 118°14'0 0.0
2017-Aug-13 09:00N 33°44' W 118°14'0 0.0
2017-Aug-13 08:31N 33°44' W 118°14'0 0.0
2017-Aug-13 08:01N 33°44' W 118°14'0 0.1
2017-Aug-13 07:31N 33°44' W 118°14'0 0.8
2017-Aug-13 07:01N 33°43' W 118°14'1 2.4
2017-Aug-13 06:30N 33°43' W 118°15'1 2.3
2017-Aug-13 06:00N 33°44' W 118°16'0 0.0
2017-Aug-13 05:31N 33°44' W 118°16'0 0.0
2017-Aug-13 05:01N 33°44' W 118°16'0 0.0
2017-Aug-13 04:31N 33°44' W 118°16'1 2.2
2017-Aug-13 04:00N 33°43' W 118°15'1 2.1
2017-Aug-13 03:31N 33°43' W 118°14'2 3.4
2017-Aug-13 03:01N 33°44' W 118°16'0 0.0
2017-Aug-13 02:31N 33°44' W 118°16'0 0.1
2017-Aug-13 02:01N 33°44' W 118°16'2 4.4
2017-Aug-13 01:31N 33°44' W 118°13'0 0.0
2017-Aug-13 01:00N 33°44' W 118°13'2 4.3
2017-Aug-13 00:30N 33°46' W 118°13'1 1.9
2017-Aug-13 00:00N 33°45' W 118°13'2 3.4
2017-Aug-12 23:31N 33°44' W 118°12'3 6.9
2017-Aug-12 23:01N 33°44' W 118°16'0 0.0
2017-Aug-12 22:31N 33°44' W 118°16'0 0.0
2017-Aug-12 22:00N 33°44' W 118°16'0 0.0
2017-Aug-12 21:30N 33°44' W 118°16'0 0.1
2017-Aug-12 21:01N 33°44' W 118°16'0 0.1
2017-Aug-12 20:31N 33°44' W 118°16'0 0.1
2017-Aug-12 20:00N 33°44' W 118°16'1 1.8
2017-Aug-12 19:31N 33°43' W 118°15'4 7.9
2017-Aug-12 19:00N 33°44' W 118°11'0 0.5
2017-Aug-12 18:31N 33°44' W 118°11'4 8.1
2017-Aug-12 18:01N 33°44' W 118°16'0 0.4
2017-Aug-12 17:30N 33°44' W 118°16'0 0.0
2017-Aug-12 17:01N 33°44' W 118°16'3 5.7
2017-Aug-12 16:30N 33°44' W 118°12'1 1.1
2017-Aug-12 16:00N 33°45' W 118°13'1 1.2
2017-Aug-12 15:27N 33°44' W 118°13'2 4.3
2017-Aug-12 15:00N 33°46' W 118°13'1 1.1
2017-Aug-12 14:30N 33°46' W 118°13'1 1.7
2017-Aug-12 14:01N 33°46' W 118°13'3 5.7
2017-Aug-12 13:31N 33°44' W 118°16'0 0.1
2017-Aug-12 13:01N 33°44' W 118°16'0 0.0
2017-Aug-12 12:30N 33°44' W 118°16'0 0.0
2017-Aug-12 12:00N 33°44' W 118°16'0 0.0
2017-Aug-12 11:30N 33°44' W 118°16'1 2.2
2017-Aug-12 11:00N 33°45' W 118°16'1 2.2
2017-Aug-12 10:30N 33°46' W 118°16'0 0.2
2017-Aug-12 09:59N 33°46' W 118°16'0 0.0
2017-Aug-12 09:31N 33°46' W 118°16'0 0.0
2017-Aug-12 09:00N 33°46' W 118°16'0 0.0
2017-Aug-12 08:30N 33°46' W 118°16'0 0.0
2017-Aug-12 08:01N 33°46' W 118°16'0 0.0
2017-Aug-12 07:30N 33°46' W 118°16'0 0.7
2017-Aug-12 07:00N 33°46' W 118°15'3 5.4
2017-Aug-12 06:31N 33°44' W 118°12'0 0.4
2017-Aug-12 06:00N 33°45' W 118°12'3 5.6
2017-Aug-12 05:30N 33°44' W 118°16'0 0.0
2017-Aug-12 05:00N 33°44' W 118°16'1 1.5
2017-Aug-12 04:30N 33°43' W 118°16'3 6.4
2017-Aug-12 04:00N 33°45' W 118°12'3 5.3
2017-Aug-12 03:31N 33°43' W 118°14'3 5.5
2017-Aug-12 03:01N 33°45' W 118°16'1 2.7
2017-Aug-12 02:31N 33°44' W 118°16'0 0.0
2017-Aug-12 02:01N 33°44' W 118°16'0 0.0
2017-Aug-12 01:31N 33°44' W 118°16'0 0.0
2017-Aug-12 01:00N 33°44' W 118°16'0 0.0
2017-Aug-12 00:30N 33°44' W 118°16'3 6.5
2017-Aug-12 00:00N 33°44' W 118°12'1 1.2
2017-Aug-11 23:31N 33°44' W 118°11'2 4.3
2017-Aug-11 23:00N 33°43' W 118°14'2 3.9
2017-Aug-11 22:31N 33°44' W 118°16'0 0.1
2017-Aug-11 22:00N 33°44' W 118°16'2 3.8
2017-Aug-11 21:31N 33°44' W 118°13'2 3.2
2017-Aug-11 21:01N 33°45' W 118°12'3 6.4
2017-Aug-11 20:30N 33°43' W 118°16'1 1.4
2017-Aug-11 20:01N 33°44' W 118°16'0 0.0
2017-Aug-11 19:31N 33°44' W 118°16'0 0.0
2017-Aug-11 19:01N 33°44' W 118°16'0 0.0
2017-Aug-11 18:31N 33°44' W 118°16'0 0.0
2017-Aug-11 18:01N 33°44' W 118°16'1 1.3
2017-Aug-11 17:30N 33°44' W 118°16'1 1.6
2017-Aug-11 17:00N 33°45' W 118°16'1 1.5
2017-Aug-11 16:30N 33°46' W 118°16'0 0.9
2017-Aug-11 16:00N 33°45' W 118°16'2 4.1
2017-Aug-11 15:30N 33°43' W 118°16'0 0.5
2017-Aug-11 15:01N 33°43' W 118°16'3 5.8
2017-Aug-11 14:31N 33°46' W 118°16'2 2.1
2017-Aug-11 13:30N 33°44' W 118°16'0 0.3
2017-Aug-11 13:00N 33°44' W 118°16'1 1.2
2017-Aug-11 12:30N 33°43' W 118°16'2 3.8
2017-Aug-11 12:00N 33°45' W 118°16'0 0.4
2017-Aug-11 11:29N 33°45' W 118°16'0 0.0
2017-Aug-11 11:00N 33°45' W 118°16'0 0.0
2017-Aug-11 10:31N 33°45' W 118°16'2 3.7
2017-Aug-11 10:00N 33°46' W 118°14'1 2.3
2017-Aug-11 09:31N 33°46' W 118°13'0 0.3
2017-Aug-11 09:00N 33°46' W 118°13'1 1.6
2017-Aug-11 08:30N 33°46' W 118°13'2 4.4
2017-Aug-11 07:56N 33°44' W 118°11'0 0.3
2017-Aug-11 07:28N 33°44' W 118°12'3 5.8
2017-Aug-11 07:00N 33°43' W 118°15'1 2.5
2017-Aug-11 06:31N 33°44' W 118°16'0 0.0
2017-Aug-11 06:00N 33°44' W 118°16'0 0.0
2017-Aug-11 05:30N 33°44' W 118°16'0 0.0
2017-Aug-11 05:00N 33°44' W 118°16'0 0.0
2017-Aug-11 04:30N 33°44' W 118°16'0 0.0
2017-Aug-11 04:00N 33°44' W 118°16'0 0.0
2017-Aug-11 03:30N 33°44' W 118°16'0 0.0
2017-Aug-11 03:01N 33°44' W 118°16'0 1.0
2017-Aug-11 02:30N 33°43' W 118°16'3 5.7
2017-Aug-11 02:00N 33°45' W 118°13'1 1.9
2017-Aug-11 01:31N 33°46' W 118°13'0 0.0
2017-Aug-11 01:00N 33°46' W 118°13'2 3.9
2017-Aug-11 00:30N 33°44' W 118°13'1 2.7
2017-Aug-11 00:00N 33°44' W 118°11'1 2.5
2017-Aug-10 23:31N 33°43' W 118°13'2 4.9
2017-Aug-10 23:00N 33°44' W 118°16'1 2.5
2017-Aug-10 22:30N 33°43' W 118°15'2 3.1
2017-Aug-10 22:00N 33°44' W 118°13'2 4.5
2017-Aug-10 21:30N 33°44' W 118°16'0 0.0
2017-Aug-10 21:01N 33°44' W 118°16'0 0.0
2017-Aug-10 20:31N 33°44' W 118°16'0 0.0
2017-Aug-10 20:00N 33°44' W 118°16'1 1.2
2017-Aug-10 19:30N 33°44' W 118°16'0 0.0
2017-Aug-10 19:01N 33°44' W 118°16'0 0.0
2017-Aug-10 18:30N 33°44' W 118°16'0 0.0
2017-Aug-10 18:00N 33°44' W 118°16'1 1.3
2017-Aug-10 17:30N 33°44' W 118°16'0 0.6
2017-Aug-10 17:00N 33°44' W 118°16'2 4.2
2017-Aug-10 16:30N 33°44' W 118°13'0 0.9
2017-Aug-10 16:00N 33°44' W 118°13'3 6.0
2017-Aug-10 15:30N 33°41' W 118°11'3 5.7
2017-Aug-10 15:00N 33°44' W 118°12'1 2.4
2017-Aug-10 14:30N 33°44' W 118°13'2 3.8
2017-Aug-10 14:00N 33°44' W 118°16'0 0.2
2017-Aug-10 13:30N 33°44' W 118°16'0 0.3
2017-Aug-10 13:00N 33°44' W 118°16'2 4.4
2017-Aug-10 12:30N 33°46' W 118°17'0 0.3
2017-Aug-10 12:00N 33°46' W 118°17'2 3.1
2017-Aug-10 11:30N 33°44' W 118°17'2 4.0
2017-Aug-10 11:01N 33°43' W 118°15'1 2.7
2017-Aug-10 10:30N 33°44' W 118°16'0 0.0
2017-Aug-10 10:00N 33°44' W 118°16'0 0.0
2017-Aug-10 09:30N 33°44' W 118°16'0 0.0
2017-Aug-10 09:00N 33°44' W 118°16'0 0.0
2017-Aug-10 08:30N 33°44' W 118°16'0 0.0
2017-Aug-10 08:01N 33°44' W 118°16'0 0.0
2017-Aug-10 07:31N 33°44' W 118°16'0 0.0
2017-Aug-10 07:00N 33°44' W 118°16'0 0.0
2017-Aug-10 06:30N 33°44' W 118°16'0 0.0
2017-Aug-10 05:58N 33°44' W 118°16'0 0.0
2017-Aug-10 05:30N 33°44' W 118°16'0 0.0
2017-Aug-10 05:00N 33°44' W 118°16'0 0.0
2017-Aug-10 04:31N 33°44' W 118°16'0 0.0
2017-Aug-10 04:01N 33°44' W 118°16'0 0.0
2017-Aug-10 03:30N 33°44' W 118°16'0 0.0
2017-Aug-10 03:00N 33°44' W 118°16'0 0.0
2017-Aug-10 02:30N 33°44' W 118°16'0 0.0
2017-Aug-10 02:01N 33°44' W 118°16'0 0.0
2017-Aug-10 01:30N 33°44' W 118°16'0 0.0
2017-Aug-10 01:00N 33°44' W 118°16'0 0.0
2017-Aug-10 00:30N 33°44' W 118°16'0 0.0
2017-Aug-10 00:00N 33°44' W 118°16'1 1.8
2017-Aug-09 23:31N 33°44' W 118°17'1 2.8
2017-Aug-09 23:00N 33°45' W 118°16'2 3.7
2017-Aug-09 22:30N 33°44' W 118°16'2 3.6
2017-Aug-09 22:00N 33°43' W 118°15'1 2.1
2017-Aug-09 21:31N 33°43' W 118°16'1 2.1
2017-Aug-09 21:00N 33°44' W 118°16'0 0.5
2017-Aug-09 20:30N 33°44' W 118°16'1 2.3
2017-Aug-09 20:00N 33°43' W 118°15'1 1.3
2017-Aug-09 19:30N 33°43' W 118°15'1 2.4
2017-Aug-09 19:00N 33°44' W 118°16'0 0.5
2017-Aug-09 18:30N 33°44' W 118°16'0 0.0
2017-Aug-09 18:00N 33°44' W 118°16'0 0.0
2017-Aug-09 16:25N 33°44' W 118°16'0 0.0
2017-Aug-09 15:59N 33°44' W 118°16'0 0.0
2017-Aug-09 15:30N 33°44' W 118°16'2 3.9
2017-Aug-09 15:00N 33°44' W 118°13'1 1.0
2017-Aug-09 14:30N 33°44' W 118°13'2 3.6
2017-Aug-09 14:00N 33°46' W 118°14'1 2.5
2017-Aug-09 13:30N 33°45' W 118°13'1 1.0
2017-Aug-09 13:00N 33°46' W 118°13'1 1.4
2017-Aug-09 12:30N 33°46' W 118°13'1 1.4
2017-Aug-09 12:00N 33°46' W 118°13'1 1.9
2017-Aug-09 11:30N 33°45' W 118°13'2 3.8
2017-Aug-09 11:00N 33°44' W 118°11'3 6.2
2017-Aug-09 10:30N 33°43' W 118°15'1 2.2
2017-Aug-09 10:00N 33°44' W 118°16'0 0.0
2017-Aug-09 09:30N 33°44' W 118°16'0 0.0
2017-Aug-09 09:00N 33°44' W 118°16'0 0.0
2017-Aug-09 08:30N 33°44' W 118°16'0 0.0
2017-Aug-09 08:00N 33°44' W 118°16'0 0.0
2017-Aug-09 07:30N 33°44' W 118°16'0 0.0
2017-Aug-09 07:00N 33°44' W 118°16'0 0.0
2017-Aug-09 06:30N 33°44' W 118°16'0 0.0
2017-Aug-09 06:00N 33°44' W 118°16'0 0.0
2017-Aug-09 05:30N 33°44' W 118°16'0 0.0
2017-Aug-09 05:00N 33°44' W 118°16'0 0.0
2017-Aug-09 04:30N 33°44' W 118°16'0 0.0
2017-Aug-09 04:00N 33°44' W 118°16'  

Dump ship's entire track history